San Diego, California
Current Conditions -  °F | °C
As of 3:51 PM on Wednesday 28 Jan 2015 (Local Time) from KSAN Reporting Station
Overcast Overcast  
Wind Chill: 71°   Ceiling: 19000
Heat Index: 71°   Visibility: 10mi
Dew Point: 50°   Wind: 6mph
Humidity: 47%   Direction: 330°NNW
Pressure: 30.06"   Gusts: NA
Location:  32.72°N, 117.16°W
Report Text: KSAN 282351Z 33005KT 10SM BKN190 OVC230 22/10 A3006 RMK AO2 SLP179 T02170100 10222 20194 58001
Loading
Personal Weather Stations






























Interactive Weather Map New forecast layout! Learn more

10-Day Weather Forecast

Advertisements
Track Severe Weather on mobile